createdAt,value
2019-03-25T00:02:18.310Z,7.40
2019-03-25T00:04:44.784Z,7.40
2019-03-25T00:07:11.465Z,7.30
2019-03-25T00:09:37.793Z,7.40
2019-03-25T00:12:04.212Z,7.20
2019-03-25T00:14:31.029Z,7.30
2019-03-25T00:16:57.671Z,7.20
2019-03-25T00:19:24.416Z,7.20
2019-03-25T00:21:50.745Z,7.10
2019-03-25T00:24:17.076Z,7.30
2019-03-25T00:26:43.434Z,7.20
2019-03-25T00:29:10.078Z,7.20
2019-03-25T00:31:36.433Z,7.20
2019-03-25T00:34:03.255Z,7.30
2019-03-25T00:36:29.591Z,7.30
2019-03-25T00:38:55.930Z,7.40
2019-03-25T00:41:22.672Z,7.40
2019-03-25T00:43:49.084Z,7.30
2019-03-25T00:46:15.414Z,7.30
2019-03-25T00:48:41.741Z,7.30
2019-03-25T00:51:08.056Z,7.40
2019-03-25T00:53:34.385Z,7.30
2019-03-25T00:56:00.744Z,7.30
2019-03-25T00:58:27.069Z,7.30
2019-03-25T01:00:53.393Z,7.10
2019-03-25T01:03:19.720Z,7.00
2019-03-25T01:05:46.603Z,7.00
2019-03-25T01:08:12.960Z,6.80
2019-03-25T01:10:40.113Z,6.70
2019-03-25T01:13:06.784Z,6.70
2019-03-25T01:15:33.432Z,6.50
2019-03-25T01:18:00.251Z,6.60
2019-03-25T01:20:26.652Z,6.40
2019-03-25T01:22:53.426Z,6.40
2019-03-25T01:25:19.974Z,6.30
2019-03-25T01:27:46.600Z,6.20
2019-03-25T01:30:13.547Z,6.10
2019-03-25T01:32:40.184Z,6.10
2019-03-25T01:35:06.887Z,6.00
2019-03-25T01:37:33.589Z,6.00
2019-03-25T01:39:59.938Z,6.00
2019-03-25T01:42:26.271Z,5.90
2019-03-25T01:44:52.971Z,5.90
2019-03-25T01:47:19.618Z,5.90
2019-03-25T01:49:46.361Z,5.90
2019-03-25T01:52:12.794Z,5.90
2019-03-25T01:54:39.141Z,6.10
2019-03-25T01:57:05.790Z,6.20
2019-03-25T01:59:32.146Z,6.20
2019-03-25T02:01:58.522Z,6.10
2019-03-25T02:04:25.165Z,6.10
2019-03-25T02:06:52.153Z,6.00
2019-03-25T02:09:18.537Z,6.10
2019-03-25T02:11:44.877Z,6.00
2019-03-25T02:14:11.283Z,6.00
2019-03-25T02:16:37.664Z,5.90
2019-03-25T02:19:04.407Z,5.90
2019-03-25T02:21:30.721Z,5.70
2019-03-25T02:23:58.142Z,5.60
2019-03-25T02:26:24.451Z,5.60
2019-03-25T02:28:50.757Z,5.50
2019-03-25T02:31:17.083Z,5.50
2019-03-25T02:33:43.404Z,5.40
2019-03-25T02:36:09.749Z,5.30
2019-03-25T02:38:36.069Z,5.20
2019-03-25T02:41:02.490Z,5.10
2019-03-25T02:43:28.821Z,5.10
2019-03-25T02:45:55.213Z,5.00
2019-03-25T02:48:21.910Z,4.90
2019-03-25T02:50:48.274Z,4.90
2019-03-25T02:53:14.618Z,4.90
2019-03-25T02:55:42.814Z,4.90
2019-03-25T02:58:09.283Z,4.80
2019-03-25T03:00:37.470Z,4.80
2019-03-25T03:03:05.781Z,4.70
2019-03-25T03:05:32.108Z,4.70
2019-03-25T03:07:58.410Z,4.70
2019-03-25T03:10:25.139Z,4.70
2019-03-25T03:12:51.470Z,4.60
2019-03-25T03:15:18.200Z,4.60
2019-03-25T03:17:44.575Z,4.60
2019-03-25T03:20:10.920Z,4.50
2019-03-25T03:22:37.272Z,4.50
2019-03-25T03:25:03.921Z,4.50
2019-03-25T03:27:30.578Z,4.50
2019-03-25T03:29:57.215Z,4.60
2019-03-25T03:32:23.858Z,4.60
2019-03-25T03:34:50.471Z,4.70
2019-03-25T03:37:16.930Z,4.80
2019-03-25T03:39:43.272Z,4.80
2019-03-25T03:42:09.886Z,4.80
2019-03-25T03:44:36.407Z,4.80
2019-03-25T03:47:02.773Z,4.80
2019-03-25T03:49:29.119Z,4.80
2019-03-25T03:51:56.336Z,4.80
2019-03-25T03:54:22.650Z,4.90
2019-03-25T03:56:50.340Z,4.90
2019-03-25T03:59:16.854Z,5.00
2019-03-25T04:01:43.205Z,5.00
2019-03-25T04:04:09.523Z,5.00
2019-03-25T04:06:36.275Z,5.10
2019-03-25T04:09:04.496Z,5.10
2019-03-25T04:11:30.914Z,5.00
2019-03-25T04:13:57.535Z,5.10
2019-03-25T04:16:23.899Z,5.20
2019-03-25T04:18:50.249Z,5.20
2019-03-25T04:21:16.719Z,5.20
2019-03-25T04:23:46.298Z,5.20
2019-03-25T04:26:27.226Z,5.20
2019-03-25T04:28:39.905Z,5.30
2019-03-25T04:31:06.240Z,5.30
2019-03-25T04:33:32.610Z,5.40
2019-03-25T04:35:58.965Z,5.40
2019-03-25T04:38:25.299Z,5.40
2019-03-25T04:40:51.636Z,5.40
2019-03-25T04:43:18.004Z,5.50
2019-03-25T04:45:44.440Z,5.50
2019-03-25T04:48:10.767Z,5.50
2019-03-25T04:50:37.611Z,5.50
2019-03-25T04:53:04.248Z,5.40
2019-03-25T04:55:30.572Z,5.40
2019-03-25T04:57:57.214Z,5.50
2019-03-25T05:00:35.628Z,5.50
2019-03-25T05:03:02.552Z,5.40
2019-03-25T05:05:29.219Z,5.40
2019-03-25T05:07:55.958Z,5.30
2019-03-25T05:10:22.727Z,5.20
2019-03-25T05:12:49.146Z,5.10
2019-03-25T05:15:15.503Z,5.10
2019-03-25T05:17:41.840Z,5.10
2019-03-25T05:20:08.580Z,5.00
2019-03-25T05:22:34.957Z,5.00
2019-03-25T05:25:01.669Z,5.00
2019-03-25T05:27:27.995Z,5.00
2019-03-25T05:29:54.399Z,5.00
2019-03-25T05:32:20.837Z,5.00
2019-03-25T05:34:47.428Z,5.00
2019-03-25T05:37:14.103Z,5.10
2019-03-25T05:39:40.710Z,5.20
2019-03-25T05:42:07.083Z,5.20
2019-03-25T05:44:33.441Z,5.30
2019-03-25T05:46:59.799Z,5.20
2019-03-25T05:49:26.447Z,5.40
2019-03-25T05:51:53.086Z,5.50
2019-03-25T05:54:19.415Z,5.60
2019-03-25T05:56:46.373Z,5.70
2019-03-25T05:59:12.700Z,5.70
2019-03-25T06:01:39.008Z,5.60
2019-03-25T06:04:05.655Z,5.60
2019-03-25T06:06:32.501Z,5.60
2019-03-25T06:08:58.857Z,5.50
2019-03-25T06:11:25.214Z,5.50
2019-03-25T06:13:51.535Z,5.60
2019-03-25T06:16:18.517Z,5.50
2019-03-25T06:18:44.907Z,5.50
2019-03-25T06:21:11.377Z,5.60
2019-03-25T06:23:38.416Z,5.70
2019-03-25T06:26:05.229Z,5.80
2019-03-25T06:28:31.832Z,5.90
2019-03-25T06:30:58.399Z,5.90
2019-03-25T06:33:24.769Z,6.00
2019-03-25T06:35:51.103Z,6.00
2019-03-25T06:38:17.784Z,6.00
2019-03-25T06:40:44.128Z,6.20
2019-03-25T06:43:10.495Z,6.40
2019-03-25T06:45:36.930Z,6.60
2019-03-25T06:48:03.632Z,6.80
2019-03-25T06:50:30.041Z,6.80
2019-03-25T06:52:56.415Z,6.80
2019-03-25T06:55:22.875Z,6.80
2019-03-25T06:57:49.496Z,6.90
2019-03-25T07:00:16.707Z,6.80
2019-03-25T07:02:43.811Z,6.80
2019-03-25T07:05:11.765Z,6.60
2019-03-25T07:07:38.103Z,6.50
2019-03-25T07:10:06.616Z,6.30
2019-03-25T07:12:33.017Z,6.40
2019-03-25T07:14:59.828Z,6.40
2019-03-25T07:17:26.173Z,6.60
2019-03-25T07:19:52.527Z,6.40
2019-03-25T07:22:19.357Z,6.30
2019-03-25T07:24:45.764Z,6.30
2019-03-25T07:27:12.402Z,6.50
2019-03-25T07:29:39.136Z,6.50
2019-03-25T07:32:05.519Z,6.40
2019-03-25T07:34:32.116Z,6.30
2019-03-25T07:36:58.956Z,6.40
2019-03-25T07:39:25.282Z,6.30
2019-03-25T07:41:51.653Z,5.80
2019-03-25T07:44:18.089Z,5.80
2019-03-25T07:46:44.492Z,5.60
2019-03-25T07:49:11.236Z,5.60
2019-03-25T07:51:37.659Z,5.40
2019-03-25T07:54:04.002Z,5.60
2019-03-25T07:56:30.378Z,5.50
2019-03-25T07:58:57.177Z,5.50
2019-03-25T08:01:23.902Z,5.70
2019-03-25T08:03:50.275Z,5.90
2019-03-25T08:06:16.714Z,5.70
2019-03-25T08:08:43.035Z,5.50
2019-03-25T08:11:09.408Z,5.80
2019-03-25T08:13:35.701Z,5.70
2019-03-25T08:16:03.454Z,5.90
2019-03-25T08:18:30.259Z,5.80
2019-03-25T08:20:57.001Z,6.00
2019-03-25T08:23:23.380Z,5.90
2019-03-25T08:25:49.674Z,5.90
2019-03-25T08:28:16.031Z,5.90
2019-03-25T08:30:42.366Z,5.40
2019-03-25T08:33:08.705Z,5.10
2019-03-25T08:35:35.021Z,4.80
2019-03-25T08:38:01.356Z,4.30
2019-03-25T08:40:27.833Z,4.10
2019-03-25T08:42:54.227Z,4.00
2019-03-25T08:45:20.592Z,4.10
2019-03-25T08:47:46.940Z,4.20
2019-03-25T08:50:13.296Z,4.20
2019-03-25T08:52:40.061Z,4.30
2019-03-25T08:55:06.752Z,4.40
2019-03-25T08:57:33.142Z,4.60
2019-03-25T08:59:59.872Z,4.70
2019-03-25T09:02:26.246Z,4.70
2019-03-25T09:04:52.685Z,4.70
2019-03-25T09:07:19.354Z,4.60
2019-03-25T09:09:45.836Z,4.80
2019-03-25T09:12:12.188Z,4.70
2019-03-25T09:14:38.564Z,4.70
2019-03-25T09:17:05.442Z,4.70
2019-03-25T09:19:31.843Z,4.60
2019-03-25T09:21:58.306Z,4.70
2019-03-25T09:24:24.930Z,4.80
2019-03-25T09:26:51.288Z,4.80
2019-03-25T09:29:17.642Z,4.80
2019-03-25T09:31:44.000Z,4.90
2019-03-25T09:34:11.934Z,4.90
2019-03-25T09:36:38.632Z,4.90
2019-03-25T09:39:07.271Z,5.00
2019-03-25T09:41:33.944Z,5.30
2019-03-25T09:44:00.277Z,5.60
2019-03-25T09:46:26.986Z,5.80
2019-03-25T09:48:53.427Z,6.10
2019-03-25T09:51:20.163Z,6.40
2019-03-25T09:53:47.562Z,6.50
2019-03-25T09:56:13.911Z,6.40
2019-03-25T09:58:40.610Z,6.50
2019-03-25T10:01:07.065Z,6.50
2019-03-25T10:03:33.897Z,6.80
2019-03-25T10:06:00.344Z,6.90
2019-03-25T10:08:27.140Z,6.80
2019-03-25T10:10:53.504Z,6.80
2019-03-25T10:13:20.008Z,6.90
2019-03-25T10:15:47.494Z,7.10
2019-03-25T10:18:14.272Z,7.30
2019-03-25T10:20:40.727Z,7.50
2019-03-25T10:23:07.344Z,8.00
2019-03-25T10:25:34.447Z,8.10
2019-03-25T10:28:00.929Z,8.10
2019-03-25T10:30:27.606Z,7.80
2019-03-25T10:32:53.998Z,7.40
2019-03-25T10:35:20.778Z,6.70
2019-03-25T10:37:47.234Z,5.30
2019-03-25T10:40:14.289Z,4.40
2019-03-25T10:42:41.715Z,4.20
2019-03-25T10:45:09.728Z,4.50
2019-03-25T10:47:36.264Z,4.60
2019-03-25T10:50:04.188Z,4.80
2019-03-25T10:52:30.660Z,4.80
2019-03-25T10:57:23.441Z,5.50
2019-03-25T10:59:50.078Z,6.00
2019-03-25T11:02:16.422Z,6.40
2019-03-25T11:04:43.434Z,6.70
2019-03-25T11:07:11.119Z,7.00
2019-03-25T11:09:37.763Z,7.20
2019-03-25T11:12:04.415Z,7.50
2019-03-25T11:14:30.821Z,7.90
2019-03-25T11:16:57.546Z,8.20
2019-03-25T11:19:23.935Z,8.30
2019-03-25T11:21:50.623Z,8.40
2019-03-25T11:24:17.341Z,8.40
2019-03-25T11:26:44.129Z,8.40
2019-03-25T11:29:10.845Z,8.40
2019-03-25T11:31:37.582Z,8.70
2019-03-25T11:34:04.001Z,9.00
2019-03-25T11:36:30.356Z,8.60
2019-03-25T11:38:56.688Z,8.40
2019-03-25T11:41:23.404Z,9.60
2019-03-25T11:43:50.203Z,10.10
2019-03-25T11:46:16.887Z,9.50
2019-03-25T11:48:43.260Z,8.80
2019-03-25T11:51:09.926Z,8.60
2019-03-25T11:53:36.450Z,7.90
2019-03-25T11:56:03.573Z,7.10
2019-03-25T11:58:30.405Z,8.20
2019-03-25T12:00:56.724Z,9.70
2019-03-25T12:03:24.214Z,10.30
2019-03-25T12:05:50.968Z,12.20
2019-03-25T12:08:18.778Z,13.40
2019-03-25T12:10:45.164Z,14.80
2019-03-25T12:13:11.874Z,15.10
2019-03-25T12:15:38.236Z,16.60
2019-03-25T12:18:04.636Z,16.40
2019-03-25T12:20:31.484Z,16.40
2019-03-25T12:22:57.784Z,14.70
2019-03-25T12:25:24.209Z,15.90
2019-03-25T12:27:50.880Z,15.10
2019-03-25T12:30:17.506Z,15.70
2019-03-25T12:32:43.820Z,14.20
2019-03-25T12:35:10.282Z,13.00
2019-03-25T12:37:36.625Z,13.90
2019-03-25T12:40:07.629Z,15.60
2019-03-25T12:42:33.315Z,13.70
2019-03-25T12:44:59.993Z,12.20
2019-03-25T12:47:27.698Z,12.80
2019-03-25T12:49:55.288Z,15.50
2019-03-25T12:52:22.067Z,16.60
2019-03-25T12:54:49.776Z,18.10
2019-03-25T12:57:16.455Z,17.40
2019-03-25T12:59:43.199Z,14.10
2019-03-25T13:02:09.865Z,14.20
2019-03-25T13:04:36.573Z,14.40
2019-03-25T13:07:03.346Z,14.90
2019-03-25T13:09:29.761Z,14.60
2019-03-25T13:11:56.198Z,15.90
2019-03-25T13:14:22.582Z,16.20
2019-03-25T13:16:49.021Z,16.60
2019-03-25T13:19:15.355Z,16.80
2019-03-25T13:21:41.716Z,18.90
2019-03-25T13:24:08.382Z,21.10
2019-03-25T13:27:05.331Z,17.20
2019-03-25T13:30:52.140Z,15.00
2019-03-25T13:34:42.542Z,14.00
2019-03-25T13:37:32.623Z,13.10
2019-03-25T13:40:41.658Z,12.00
2019-03-25T13:43:35.153Z,11.10
2019-03-25T13:46:05.792Z,10.20
2019-03-25T13:48:32.824Z,10.10
2019-03-25T13:50:59.593Z,9.60
2019-03-25T13:53:26.036Z,9.90
2019-03-25T13:55:52.832Z,10.00
2019-03-25T13:58:19.275Z,10.00
2019-03-25T14:00:46.050Z,10.20
2019-03-25T14:03:12.408Z,10.00
2019-03-25T14:05:40.092Z,10.20
2019-03-25T14:08:06.442Z,10.00
2019-03-25T14:10:33.184Z,9.90
2019-03-25T14:12:59.768Z,9.70
2019-03-25T14:15:27.266Z,9.60
2019-03-25T14:17:53.612Z,9.90
2019-03-25T14:20:20.055Z,10.20
2019-03-25T14:22:47.489Z,10.50
2019-03-25T14:25:13.843Z,10.50
2019-03-25T14:27:40.631Z,10.50
2019-03-25T14:30:14.314Z,10.60
2019-03-25T14:32:36.922Z,10.50
2019-03-25T14:35:06.385Z,10.60
2019-03-25T14:37:33.461Z,10.80
2019-03-25T14:39:59.838Z,10.80
2019-03-25T14:42:26.173Z,10.60
2019-03-25T14:44:52.618Z,9.80
2019-03-25T14:47:20.479Z,9.00
2019-03-25T14:49:46.826Z,8.60
2019-03-25T14:52:13.489Z,8.40
2019-03-25T14:54:40.225Z,8.20
2019-03-25T14:57:06.787Z,7.80
2019-03-25T14:59:33.180Z,7.10
2019-03-25T15:01:59.525Z,6.60
2019-03-25T15:04:27.318Z,6.40
2019-03-25T15:06:53.717Z,6.30
2019-03-25T15:09:20.088Z,6.30
2019-03-25T15:11:46.740Z,6.30
2019-03-25T15:14:13.041Z,6.30
2019-03-25T15:16:39.386Z,6.40
2019-03-25T15:19:05.741Z,6.40
2019-03-25T15:21:33.280Z,6.40
2019-03-25T15:23:59.643Z,6.40
2019-03-25T15:26:26.320Z,6.40
2019-03-25T15:28:53.081Z,6.60
2019-03-25T15:31:19.431Z,6.80
2019-03-25T15:33:46.789Z,6.80
2019-03-25T15:36:13.520Z,6.80
2019-03-25T15:38:40.139Z,7.00
2019-03-25T15:41:06.542Z,7.30
2019-03-25T15:43:32.903Z,7.00
2019-03-25T15:45:59.778Z,7.00
2019-03-25T15:48:26.136Z,6.90
2019-03-25T15:50:52.570Z,6.80
2019-03-25T15:53:19.890Z,6.90
2019-03-25T15:55:48.208Z,6.80
2019-03-25T15:58:21.707Z,6.90
2019-03-25T16:00:48.142Z,6.90
2019-03-25T16:03:11.315Z,6.90
2019-03-25T16:05:45.209Z,6.80
2019-03-25T16:08:13.926Z,6.80
2019-03-25T16:10:40.696Z,6.70
2019-03-25T16:13:09.393Z,6.70
2019-03-25T16:15:41.064Z,6.60
2019-03-25T16:18:08.400Z,6.70
2019-03-25T16:20:35.013Z,6.70
2019-03-25T16:23:01.387Z,6.70
2019-03-25T16:25:28.279Z,6.80
2019-03-25T16:27:54.718Z,6.60
2019-03-25T16:30:21.355Z,6.50
2019-03-25T16:32:47.990Z,6.40
2019-03-25T16:35:14.665Z,6.40
2019-03-25T16:37:41.496Z,6.30
2019-03-25T16:40:14.192Z,6.50
2019-03-25T16:42:40.596Z,6.50
2019-03-25T16:45:07.535Z,6.50
2019-03-25T16:47:33.904Z,6.50
2019-03-25T16:50:00.374Z,6.50
2019-03-25T16:52:26.856Z,6.60
2019-03-25T16:54:53.760Z,6.50
2019-03-25T16:57:20.512Z,6.50
2019-03-25T16:59:46.878Z,6.50
2019-03-25T17:02:13.262Z,6.30
2019-03-25T17:04:39.608Z,6.20
2019-03-25T17:07:08.080Z,5.90
2019-03-25T17:09:34.983Z,5.50
2019-03-25T17:12:01.824Z,5.20
2019-03-25T17:14:30.693Z,5.20
2019-03-25T17:16:57.145Z,5.10
2019-03-25T17:19:26.966Z,5.10
2019-03-25T17:21:58.073Z,5.10
2019-03-25T17:24:21.652Z,5.10
2019-03-25T17:26:47.980Z,5.10
2019-03-25T17:29:14.325Z,4.70
2019-03-25T17:31:40.659Z,4.40
2019-03-25T17:34:07.276Z,4.30
2019-03-25T17:36:33.903Z,4.30
2019-03-25T17:39:00.319Z,4.20
2019-03-25T17:41:27.003Z,4.30
2019-03-25T17:43:53.859Z,4.40
2019-03-25T17:46:20.575Z,4.50
2019-03-25T17:48:47.164Z,4.60
2019-03-25T17:51:15.080Z,4.50
2019-03-25T17:53:41.812Z,4.40
2019-03-25T17:56:08.541Z,4.30
2019-03-25T17:58:35.183Z,4.30
2019-03-25T18:01:05.207Z,4.30
2019-03-25T18:03:31.953Z,4.30
2019-03-25T18:05:59.421Z,4.40
2019-03-25T18:08:25.828Z,4.50
2019-03-25T18:10:52.706Z,4.50
2019-03-25T18:13:22.568Z,4.60
2019-03-25T18:15:47.711Z,4.70
2019-03-25T18:18:14.446Z,4.60
2019-03-25T18:20:41.171Z,4.60
2019-03-25T18:23:07.826Z,4.50
2019-03-25T18:25:34.166Z,4.50
2019-03-25T18:28:01.024Z,4.60
2019-03-25T18:30:32.449Z,4.60
2019-03-25T18:32:59.084Z,4.60
2019-03-25T18:35:26.473Z,4.50
2019-03-25T18:37:52.948Z,4.50
2019-03-25T18:40:19.316Z,4.50
2019-03-25T18:42:45.993Z,4.60
2019-03-25T18:45:12.892Z,4.60
2019-03-25T18:47:39.380Z,4.40
2019-03-25T18:50:06.519Z,4.40
2019-03-25T18:52:33.074Z,4.40
2019-03-25T18:55:00.443Z,4.40
2019-03-25T18:57:27.055Z,4.20
2019-03-25T18:59:53.432Z,4.10
2019-03-25T19:02:20.355Z,4.20
2019-03-25T19:04:46.888Z,4.20
2019-03-25T19:07:13.808Z,4.20
2019-03-25T19:09:40.489Z,4.20
2019-03-25T19:12:06.831Z,4.30
2019-03-25T19:14:33.349Z,4.40
2019-03-25T19:17:00.007Z,4.40
2019-03-25T19:19:26.657Z,4.40
2019-03-25T19:21:53.509Z,4.50
2019-03-25T19:24:20.375Z,4.50
2019-03-25T19:26:47.466Z,4.60
2019-03-25T19:29:14.009Z,4.70
2019-03-25T19:31:41.113Z,4.60
2019-03-25T19:34:08.136Z,4.70
2019-03-25T19:36:34.564Z,4.50
2019-03-25T19:39:00.980Z,4.50
2019-03-25T19:41:32.567Z,4.50
2019-03-25T19:43:58.075Z,4.40
2019-03-25T19:46:27.366Z,4.40
2019-03-25T19:48:53.702Z,4.20
2019-03-25T19:51:21.106Z,4.20
2019-03-25T19:53:47.536Z,4.20
2019-03-25T19:56:13.923Z,4.10
2019-03-25T19:58:40.802Z,4.10
2019-03-25T20:01:07.606Z,4.10
2019-03-25T20:03:34.752Z,4.10
2019-03-25T20:06:01.087Z,4.20
2019-03-25T20:08:27.728Z,4.20
2019-03-25T20:10:54.768Z,4.20
2019-03-25T20:13:21.138Z,4.20
2019-03-25T20:15:48.068Z,4.10
2019-03-25T20:18:14.538Z,4.10
2019-03-25T20:20:40.941Z,4.10
2019-03-25T20:23:07.534Z,4.00
2019-03-25T20:25:35.051Z,3.90
2019-03-25T20:28:01.942Z,3.90
2019-03-25T20:30:28.427Z,3.90
2019-03-25T20:32:54.781Z,3.90
2019-03-25T20:35:21.492Z,3.80
2019-03-25T20:37:48.827Z,3.70
2019-03-25T20:40:15.810Z,3.70
2019-03-25T20:42:43.796Z,3.70
2019-03-25T20:45:11.765Z,3.70
2019-03-25T20:47:38.430Z,3.70
2019-03-25T20:50:08.097Z,3.80
2019-03-25T20:52:34.492Z,3.80
2019-03-25T20:55:00.897Z,4.00
2019-03-25T20:57:27.304Z,4.10
2019-03-25T20:59:53.729Z,4.10
2019-03-25T21:02:20.292Z,4.20
2019-03-25T21:04:46.842Z,4.20
2019-03-25T21:07:15.863Z,4.30
2019-03-25T21:09:43.859Z,4.30
2019-03-25T21:12:10.297Z,4.40
2019-03-25T21:14:36.605Z,4.40
2019-03-25T21:17:03.054Z,4.40
2019-03-25T21:19:29.883Z,4.40
2019-03-25T21:21:56.229Z,4.30
2019-03-25T21:24:22.615Z,4.40
2019-03-25T21:26:48.973Z,4.40
2019-03-25T21:29:15.477Z,4.20
2019-03-25T21:31:42.000Z,4.30
2019-03-25T21:34:09.666Z,4.30
2019-03-25T21:36:36.839Z,4.30
2019-03-25T21:39:06.975Z,4.20
2019-03-25T21:41:33.787Z,4.20
2019-03-25T21:44:01.787Z,4.20
2019-03-25T21:46:28.901Z,4.10
2019-03-25T21:48:55.446Z,4.20
2019-03-25T21:51:21.877Z,4.20
2019-03-25T21:53:48.705Z,4.10
2019-03-25T21:56:15.477Z,4.10
2019-03-25T21:58:42.000Z,4.00
2019-03-25T22:01:08.649Z,3.90
2019-03-25T22:03:35.154Z,3.90
2019-03-25T22:06:01.830Z,3.90
2019-03-25T22:08:28.172Z,3.80
2019-03-25T22:10:54.892Z,3.80
2019-03-25T22:13:21.745Z,3.80
2019-03-25T22:15:48.114Z,3.80
2019-03-25T22:18:14.451Z,3.80
2019-03-25T22:20:40.843Z,3.80
2019-03-25T22:23:07.234Z,3.80
2019-03-25T22:25:33.905Z,3.90
2019-03-25T22:28:00.280Z,4.00
2019-03-25T22:30:26.984Z,4.00
2019-03-25T22:32:53.726Z,4.00
2019-03-25T22:35:20.091Z,4.00
2019-03-25T22:37:46.428Z,4.00
2019-03-25T22:40:13.321Z,4.00
2019-03-25T22:42:39.671Z,4.00
2019-03-25T22:45:07.513Z,4.00
2019-03-25T22:47:34.963Z,4.10
2019-03-25T22:50:02.720Z,4.00
2019-03-25T22:52:29.391Z,4.00
2019-03-25T22:54:56.223Z,4.00
2019-03-25T22:57:22.580Z,4.10
2019-03-25T22:59:49.186Z,4.10
2019-03-25T23:02:15.564Z,4.10
2019-03-25T23:04:41.955Z,4.10
2019-03-25T23:07:08.302Z,4.10
2019-03-25T23:09:35.028Z,4.00
2019-03-25T23:12:03.918Z,3.90
2019-03-25T23:14:30.276Z,4.00
2019-03-25T23:16:56.655Z,3.90
2019-03-25T23:19:23.018Z,3.90
2019-03-25T23:21:49.669Z,3.80
2019-03-25T23:24:16.012Z,3.80
2019-03-25T23:26:42.362Z,3.70
2019-03-25T23:29:09.063Z,3.70
2019-03-25T23:31:35.436Z,3.70
2019-03-25T23:34:01.787Z,3.70
2019-03-25T23:36:28.298Z,3.70
2019-03-25T23:38:54.611Z,3.60
2019-03-25T23:41:20.996Z,3.50
2019-03-25T23:43:49.194Z,3.50
2019-03-25T23:46:15.935Z,3.50
2019-03-25T23:48:42.681Z,3.50
2019-03-25T23:51:09.416Z,3.50
2019-03-25T23:53:35.770Z,3.50
2019-03-25T23:56:02.111Z,3.40
2019-03-25T23:58:36.422Z,3.40
